sensor_id;sensor_type;location;lat;lon;timestamp;pressure;altitude;pressure_sealevel;temperature;humidity
57799;BME280;43626;53.866;30.298;2023-11-21T06:41:27;1023.4;;;-1.9;55.3
57799;BME280;43626;53.866;30.298;2023-11-21T06:46:13;1023.4;;;-1.8;55.3
57799;BME280;43626;53.866;30.298;2023-11-21T06:51:15;1023.5;;;-1.7;55.1
57799;BME280;43626;53.866;30.298;2023-11-21T06:56:25;1023.5;;;-1.5;54.8
57799;BME280;43626;53.866;30.298;2023-11-21T07:01:53;1023.6;;;-1.7;54.8
57799;BME280;43626;53.866;30.298;2023-11-21T07:06:51;1023.6;;;-1.9;54.8
57799;BME280;43626;53.866;30.298;2023-11-21T07:11:41;1023.6;;;-2;55.4
57799;BME280;43626;53.866;30.298;2023-11-21T07:16:53;1023.6;;;-2;55.6
57799;BME280;43626;53.866;30.298;2023-11-21T07:21:35;1023.6;;;-2;55.6
57799;BME280;43626;53.866;30.298;2023-11-21T07:26:41;1023.6;;;-2.1;55.4
57799;BME280;43626;53.866;30.298;2023-11-21T07:31:13;1023.7;;;-2.1;55.5
57799;BME280;43626;53.866;30.298;2023-11-21T07:36:15;1023.7;;;-2.1;55.6
57799;BME280;43626;53.866;30.298;2023-11-21T07:41:33;1023.7;;;-2.1;55.5
57799;BME280;43626;53.866;30.298;2023-11-21T07:46:13;1023.8;;;-2.1;55.1
57799;BME280;43626;53.866;30.298;2023-11-21T07:51:33;1023.8;;;-2;55
57799;BME280;43626;53.866;30.298;2023-11-21T07:56:23;1023.8;;;-1.9;54.8
57799;BME280;43626;53.866;30.298;2023-11-21T08:01:53;1023.8;;;-1.8;54.4
57799;BME280;43626;53.866;30.298;2023-11-21T08:06:53;1023.8;;;-1.8;53.9
57799;BME280;43626;53.866;30.298;2023-11-21T08:11:13;1023.8;;;-1.8;53.5
57799;BME280;43626;53.866;30.298;2023-11-21T08:16:51;1023.8;;;-1.6;53.1
57799;BME280;43626;53.866;30.298;2023-11-21T08:21:13;1023.8;;;-1.4;52.5
57799;BME280;43626;53.866;30.298;2023-11-21T08:26:15;1023.8;;;-1.4;51.6
57799;BME280;43626;53.866;30.298;2023-11-21T08:31:23;1023.8;;;-1.4;51.3
57799;BME280;43626;53.866;30.298;2023-11-21T08:36:23;1023.8;;;-1.3;51.4
57799;BME280;43626;53.866;30.298;2023-11-21T08:41:33;1023.9;;;-1.3;51.4
57799;BME280;43626;53.866;30.298;2023-11-21T08:46:33;1023.9;;;-1.3;51.3
57799;BME280;43626;53.866;30.298;2023-11-21T08:51:53;1023.9;;;-1.2;51
57799;BME280;43626;53.866;30.298;2023-11-21T08:56:51;1023.9;;;-1.3;50.8
57799;BME280;43626;53.866;30.298;2023-11-21T09:01:33;1023.9;;;-1.3;50.4
57799;BME280;43626;53.866;30.298;2023-11-21T09:06:51;1023.9;;;-1.3;49.9
57799;BME280;43626;53.866;30.298;2023-11-21T09:11:25;1023.9;;;-1.3;49.2
57799;BME280;43626;53.866;30.298;2023-11-21T09:16:13;1023.9;;;-1.2;48.6
57799;BME280;43626;53.866;30.298;2023-11-21T09:21:35;1023.9;;;-1.3;47.6
57799;BME280;43626;53.866;30.298;2023-11-21T09:26:13;1023.9;;;-1.4;47.6
57799;BME280;43626;53.866;30.298;2023-11-21T09:31:33;1023.9;;;-1.4;47.4
57799;BME280;43626;53.866;30.298;2023-11-21T09:36:21;1024;;;-1.5;47.3
57799;BME280;43626;53.866;30.298;2023-11-21T09:41:56;1024;;;-1.4;47.3
57799;BME280;43626;53.866;30.298;2023-11-21T09:46:55;1024;;;-1.3;46.7
57799;BME280;43626;53.866;30.298;2023-11-21T09:51:25;1024;;;-1.2;46.3
57799;BME280;43626;53.866;30.298;2023-11-21T09:56:55;1024.1;;;-1.1;46.1
57799;BME280;43626;53.866;30.298;2023-11-21T10:01:25;1024.1;;;-1.1;44.9
57799;BME280;43626;53.866;30.298;2023-11-21T10:06:13;1024.1;;;-1;44
57799;BME280;43626;53.866;30.298;2023-11-21T10:11:38;1024.2;;;-1;42.9
57799;BME280;43626;53.866;30.298;2023-11-21T10:16:15;1024.1;;;-0.9;42.6
57799;BME280;43626;53.866;30.298;2023-11-21T10:21:37;1024.1;;;-0.7;42
57799;BME280;43626;53.866;30.298;2023-11-21T10:26:37;1024;;;-0.6;41.4
57799;BME280;43626;53.866;30.298;2023-11-21T10:31:57;1024;;;-0.5;42.2
57799;BME280;43626;53.866;30.298;2023-11-21T10:36:39;1024;;;-0.5;42
57799;BME280;43626;53.866;30.298;2023-11-21T10:41:33;1024.1;;;-0.7;42
57799;BME280;43626;53.866;30.298;2023-11-21T10:46:53;1024.1;;;-0.9;42
57799;BME280;43626;53.866;30.298;2023-11-21T10:51:15;1024.2;;;-1;42.3
57799;BME280;43626;53.866;30.298;2023-11-21T10:56:13;1024.2;;;-1;42.4
57799;BME280;43626;53.866;30.298;2023-11-21T11:01:35;1024.2;;;-0.9;41.6
57799;BME280;43626;53.866;30.298;2023-11-21T11:06:33;1024.1;;;-1;40.7
57799;BME280;43626;53.866;30.298;2023-11-21T11:11:35;1024.1;;;-1;40.5
57799;BME280;43626;53.866;30.298;2023-11-21T11:16:35;1024;;;-0.9;40.2
57799;BME280;43626;53.866;30.298;2023-11-21T11:21:58;1024;;;-0.7;39.4
57799;BME280;43626;53.866;30.298;2023-11-21T11:26:56;1024.1;;;-0.7;38.7
57799;BME280;43626;53.866;30.298;2023-11-21T11:31:50;1024.1;;;-0.8;38.9
57799;BME280;43626;53.866;30.298;2023-11-21T11:36:34;1024.1;;;-1;39
57799;BME280;43626;53.866;30.298;2023-11-21T11:41:53;1024.2;;;-1;39.4
57799;BME280;43626;53.866;30.298;2023-11-21T11:46:14;1024.1;;;-1.1;39.2
57799;BME280;43626;53.866;30.298;2023-11-21T11:52:31;1024.1;;;-1.2;39.2
57799;BME280;43626;53.866;30.298;2023-11-21T11:56:26;1024.1;;;-1.2;39.4
57799;BME280;43626;53.866;30.298;2023-11-21T12:01:41;1024.1;;;-1.1;39.1
57799;BME280;43626;53.866;30.298;2023-11-21T12:06:35;1024.1;;;-1;38.2
57799;BME280;43626;53.866;30.298;2023-11-21T12:11:29;1024.2;;;-0.8;38
57799;BME280;43626;53.866;30.298;2023-11-21T12:16:55;1024.2;;;-0.7;37.6
57799;BME280;43626;53.866;30.298;2023-11-21T12:21:15;1024.2;;;-0.8;37.1
57799;BME280;43626;53.866;30.298;2023-11-21T12:26:15;1024.2;;;-1.1;37.1
57799;BME280;43626;53.866;30.298;2023-11-21T12:31:35;1024.2;;;-1.3;37.7
57799;BME280;43626;53.866;30.298;2023-11-21T12:36:33;1024.2;;;-1.5;38.3
57799;BME280;43626;53.866;30.298;2023-11-21T12:41:55;1024.3;;;-1.6;38.3
57799;BME280;43626;53.866;30.298;2023-11-21T12:46:25;1024.4;;;-1.7;38.6
57799;BME280;43626;53.866;30.298;2023-11-21T12:51:23;1024.4;;;-1.8;38.7
57799;BME280;43626;53.866;30.298;2023-11-21T12:56:37;1024.5;;;-1.9;39.1
57799;BME280;43626;53.866;30.298;2023-11-21T13:01:13;1024.6;;;-1.8;39.1
57799;BME280;43626;53.866;30.298;2023-11-21T13:06:55;1024.7;;;-1.7;38.9
57799;BME280;43626;53.866;30.298;2023-11-21T13:11:36;1024.7;;;-1.6;38.6
57799;BME280;43626;53.866;30.298;2023-11-21T13:16:15;1024.7;;;-1.5;38.5
57799;BME280;43626;53.866;30.298;2023-11-21T13:21:13;1024.7;;;-1.5;38.6
57799;BME280;43626;53.866;30.298;2023-11-21T13:26:33;1024.7;;;-1.5;38.7
57799;BME280;43626;53.866;30.298;2023-11-21T13:31:49;1024.8;;;-1.6;38.9
57799;BME280;43626;53.866;30.298;2023-11-21T13:36:23;1024.8;;;-1.8;39.1
57799;BME280;43626;53.866;30.298;2023-11-21T13:41:21;1024.9;;;-1.7;40.7
57799;BME280;43626;53.866;30.298;2023-11-21T13:46:35;1025;;;-1.6;39.8
57799;BME280;43626;53.866;30.298;2023-11-21T13:51:13;1025.1;;;-1.8;39.7
57799;BME280;43626;53.866;30.298;2023-11-21T13:56:55;1025.2;;;-1.8;40
57799;BME280;43626;53.866;30.298;2023-11-21T14:01:45;1025.3;;;-1.8;40.1
57799;BME280;43626;53.866;30.298;2023-11-21T14:06:13;1025.3;;;-1.9;40.1
57799;BME280;43626;53.866;30.298;2023-11-21T14:11:15;1025.2;;;-1.9;40.1
57799;BME280;43626;53.866;30.298;2023-11-21T14:16:15;1025.2;;;-1.8;40.3
57799;BME280;43626;53.866;30.298;2023-11-21T14:21:55;1025.3;;;-1.7;40.5
57799;BME280;43626;53.866;30.298;2023-11-21T14:26:25;1025.3;;;-1.6;40.6
57799;BME280;43626;53.866;30.298;2023-11-21T14:31:23;1025.4;;;-1.7;40.8
57799;BME280;43626;53.866;30.298;2023-11-21T14:36:35;1025.4;;;-1.7;40.9
57799;BME280;43626;53.866;30.298;2023-11-21T14:41:13;1025.4;;;-1.7;40.9
57799;BME280;43626;53.866;30.298;2023-11-21T14:46:53;1025.4;;;-1.8;41
57799;BME280;43626;53.866;30.298;2023-11-21T14:51:46;1025.5;;;-1.8;41.2
57799;BME280;43626;53.866;30.298;2023-11-21T14:56:13;1025.5;;;-1.8;41.1
57799;BME280;43626;53.866;30.298;2023-11-21T15:01:13;1025.5;;;-1.9;41.1
57799;BME280;43626;53.866;30.298;2023-11-21T15:06:15;1025.6;;;-2;41.2
57799;BME280;43626;53.866;30.298;2023-11-21T15:11:51;1025.6;;;-2.1;41.4
57799;BME280;43626;53.866;30.298;2023-11-21T15:16:15;1025.6;;;-2.1;41.9
57799;BME280;43626;53.866;30.298;2023-11-21T15:21:23;1025.6;;;-2.1;41.7
57799;BME280;43626;53.866;30.298;2023-11-21T15:26:33;1025.6;;;-2.2;41.7
57799;BME280;43626;53.866;30.298;2023-11-21T15:31:23;1025.6;;;-2.2;41.4
57799;BME280;43626;53.866;30.298;2023-11-21T15:36:55;1025.6;;;-2.1;41.3
57799;BME280;43626;53.866;30.298;2023-11-21T15:41:55;1025.6;;;-2.1;42
57799;BME280;43626;53.866;30.298;2023-11-21T15:46:13;1025.7;;;-2.2;42.3
57799;BME280;43626;53.866;30.298;2023-11-21T15:51:13;1025.7;;;-2.2;42.6
57799;BME280;43626;53.866;30.298;2023-11-21T15:56:15;1025.7;;;-2.2;42.8
57799;BME280;43626;53.866;30.298;2023-11-21T16:01:57;1025.7;;;-2.1;42.8
57799;BME280;43626;53.866;30.298;2023-11-21T16:06:27;1025.6;;;-2.1;42.9
57799;BME280;43626;53.866;30.298;2023-11-21T16:11:21;1025.6;;;-2.2;43
57799;BME280;43626;53.866;30.298;2023-11-21T16:16:37;1025.7;;;-2.2;43.1
57799;BME280;43626;53.866;30.298;2023-11-21T16:21:47;1025.7;;;-2.2;43.1
57799;BME280;43626;53.866;30.298;2023-11-21T16:26:57;1025.8;;;-2.2;43.1
57799;BME280;43626;53.866;30.298;2023-11-21T16:31:45;1025.8;;;-2.2;42.4
57799;BME280;43626;53.866;30.298;2023-11-21T16:36:31;1025.9;;;-2.3;42.3
57799;BME280;43626;53.866;30.298;2023-11-21T16:41:15;1025.9;;;-2.4;42.4
57799;BME280;43626;53.866;30.298;2023-11-21T16:46:13;1025.8;;;-2.4;42.5
57799;BME280;43626;53.866;30.298;2023-11-21T16:51:53;1025.8;;;-2.4;42.4
57799;BME280;43626;53.866;30.298;2023-11-21T16:56:43;1025.8;;;-2.3;42.3
57799;BME280;43626;53.866;30.298;2023-11-21T17:01:21;1025.9;;;-2.2;42.2
57799;BME280;43626;53.866;30.298;2023-11-21T17:06:35;1025.8;;;-2.1;42
57799;BME280;43626;53.866;30.298;2023-11-21T17:11:55;1025.8;;;-2;42
57799;BME280;43626;53.866;30.298;2023-11-21T17:16:55;1025.8;;;-1.9;41.7
57799;BME280;43626;53.866;30.298;2023-11-21T17:21:35;1025.8;;;-1.9;41.5
57799;BME280;43626;53.866;30.298;2023-11-21T17:26:15;1025.8;;;-1.8;41.5
57799;BME280;43626;53.866;30.298;2023-11-21T17:31:15;1025.9;;;-1.7;41.7
57799;BME280;43626;53.866;30.298;2023-11-21T17:36:15;1025.9;;;-1.6;41.8
57799;BME280;43626;53.866;30.298;2023-11-21T17:41:55;1025.9;;;-1.5;41.7
57799;BME280;43626;53.866;30.298;2023-11-21T17:46:17;1025.9;;;-1.6;41.4
57799;BME280;43626;53.866;30.298;2023-11-21T17:51:23;1025.9;;;-1.7;41.5
57799;BME280;43626;53.866;30.298;2023-11-21T17:56:35;1026;;;-1.8;41.5
57799;BME280;43626;53.866;30.298;2023-11-21T18:01:46;1026;;;-1.8;41.6
57799;BME280;43626;53.866;30.298;2023-11-21T18:06:55;1026.1;;;-1.8;41.7
57799;BME280;43626;53.866;30.298;2023-11-21T18:11:55;1026.1;;;-1.8;41.8
57799;BME280;43626;53.866;30.298;2023-11-21T18:16:13;1026.1;;;-1.7;41.8
57799;BME280;43626;53.866;30.298;2023-11-21T18:21:55;1026.1;;;-1.8;41.7
57799;BME280;43626;53.866;30.298;2023-11-21T18:26:16;1026.1;;;-1.8;42.2
57799;BME280;43626;53.866;30.298;2023-11-21T18:31:55;1026.1;;;-1.7;42.3
57799;BME280;43626;53.866;30.298;2023-11-21T18:36:13;1026.2;;;-1.7;42.2
57799;BME280;43626;53.866;30.298;2023-11-21T18:41:21;1026.2;;;-1.6;42.3
57799;BME280;43626;53.866;30.298;2023-11-21T18:46:37;1026.2;;;-1.6;42.4
57799;BME280;43626;53.866;30.298;2023-11-21T18:51:45;1026.2;;;-1.6;42.4
57799;BME280;43626;53.866;30.298;2023-11-21T18:56:55;1026.2;;;-1.6;42.4
57799;BME280;43626;53.866;30.298;2023-11-21T19:01:35;1026.2;;;-1.7;42.6
57799;BME280;43626;53.866;30.298;2023-11-21T19:06:13;1026.2;;;-1.8;42.9
57799;BME280;43626;53.866;30.298;2023-11-21T19:11:23;1026.2;;;-1.8;43.2
57799;BME280;43626;53.866;30.298;2023-11-21T19:16:13;1026.2;;;-1.9;43.6
57799;BME280;43626;53.866;30.298;2023-11-21T19:21:55;1026.2;;;-2;44
57799;BME280;43626;53.866;30.298;2023-11-21T19:26:25;1026.2;;;-1.9;44.2
57799;BME280;43626;53.866;30.298;2023-11-21T19:31:23;1026.2;;;-1.9;44.2
57799;BME280;43626;53.866;30.298;2023-11-21T19:36:25;1026.2;;;-1.8;44.3
57799;BME280;43626;53.866;30.298;2023-11-21T19:41:15;1026.2;;;-1.8;44.3
57799;BME280;43626;53.866;30.298;2023-11-21T19:46:53;1026.2;;;-1.7;44.4
57799;BME280;43626;53.866;30.298;2023-11-21T19:51:45;1026.2;;;-1.6;44.5
57799;BME280;43626;53.866;30.298;2023-11-21T19:56:33;1026.2;;;-1.5;44.6
57799;BME280;43626;53.866;30.298;2023-11-21T20:01:15;1026.2;;;-1.5;44.6
57799;BME280;43626;53.866;30.298;2023-11-21T20:06:45;1026.3;;;-1.6;44.9
57799;BME280;43626;53.866;30.298;2023-11-21T20:11:55;1026.3;;;-1.7;45.3
57799;BME280;43626;53.866;30.298;2023-11-21T20:16:43;1026.3;;;-1.7;45.5
57799;BME280;43626;53.866;30.298;2023-11-21T20:21:18;1026.4;;;-1.7;45.7
57799;BME280;43626;53.866;30.298;2023-11-21T20:26:27;1026.4;;;-1.7;45.7
57799;BME280;43626;53.866;30.298;2023-11-21T20:31:49;1026.4;;;-1.7;45.9
57799;BME280;43626;53.866;30.298;2023-11-21T20:36:59;1026.4;;;-1.6;45.8
57799;BME280;43626;53.866;30.298;2023-11-21T20:41:49;1026.4;;;-1.6;45.9
57799;BME280;43626;53.866;30.298;2023-11-21T20:46:15;1026.4;;;-1.6;45.9
57799;BME280;43626;53.866;30.298;2023-11-21T20:51:13;1026.5;;;-1.7;46
57799;BME280;43626;53.866;30.298;2023-11-21T20:56:27;1026.5;;;-1.8;46.3
57799;BME280;43626;53.866;30.298;2023-11-21T21:01:59;1026.5;;;-1.7;46.5
57799;BME280;43626;53.866;30.298;2023-11-21T21:06:49;1026.6;;;-1.6;46.7
57799;BME280;43626;53.866;30.298;2023-11-21T21:11:23;1026.7;;;-1.7;47
57799;BME280;43626;53.866;30.298;2023-11-21T21:16:38;1026.7;;;-1.8;46.9
57799;BME280;43626;53.866;30.298;2023-11-21T21:21:47;1026.7;;;-1.8;46.9
57799;BME280;43626;53.866;30.298;2023-11-21T21:26:57;1026.7;;;-1.7;46.9
57799;BME280;43626;53.866;30.298;2023-11-21T21:31:57;1026.7;;;-1.7;47
57799;BME280;43626;53.866;30.298;2023-11-21T21:36:13;1026.8;;;-1.6;47
57799;BME280;43626;53.866;30.298;2023-11-21T21:41:15;1026.9;;;-1.7;47.2
57799;BME280;43626;53.866;30.298;2023-11-21T21:46:27;1027;;;-1.8;47.3
57799;BME280;43626;53.866;30.298;2023-11-21T21:51:59;1027.1;;;-1.8;47.4
57799;BME280;43626;53.866;30.298;2023-11-21T21:56:18;1027.1;;;-1.9;47.3
57799;BME280;43626;53.866;30.298;2023-11-21T22:01:23;1027.1;;;-2;47.5
57799;BME280;43626;53.866;30.298;2023-11-21T22:06:37;1027.1;;;-1.9;47.6
57799;BME280;43626;53.866;30.298;2023-11-21T22:11:45;1027.1;;;-1.9;47.8
57799;BME280;43626;53.866;30.298;2023-11-21T22:16:57;1027.1;;;-1.9;48
57799;BME280;43626;53.866;30.298;2023-11-21T22:21:47;1027.2;;;-2;48.2
57799;BME280;43626;53.866;30.298;2023-11-21T22:26:25;1027.2;;;-2.1;48.1
57799;BME280;43626;53.866;30.298;2023-11-21T22:31:23;1027.2;;;-2.1;48.2
57799;BME280;43626;53.866;30.298;2023-11-21T22:36:25;1027.2;;;-2.1;47.8
57799;BME280;43626;53.866;30.298;2023-11-21T22:41:57;1027.2;;;-2.1;47.7
57799;BME280;43626;53.866;30.298;2023-11-21T22:46:23;1027.2;;;-2.3;47.4
57799;BME280;43626;53.866;30.298;2023-11-21T22:51:13;1027.3;;;-2.4;47.6
57799;BME280;43626;53.866;30.298;2023-11-21T22:56:25;1027.3;;;-2.3;47.6
57799;BME280;43626;53.866;30.298;2023-11-21T23:01:45;1027.3;;;-2.3;47.3
57799;BME280;43626;53.866;30.298;2023-11-21T23:06:57;1027.4;;;-2.6;47.5
57799;BME280;43626;53.866;30.298;2023-11-21T23:11:47;1027.4;;;-2.7;48
57799;BME280;43626;53.866;30.298;2023-11-21T23:16:13;1027.4;;;-2.7;47.7
57799;BME280;43626;53.866;30.298;2023-11-21T23:21:13;1027.5;;;-2.6;47.1
57799;BME280;43626;53.866;30.298;2023-11-21T23:26:23;1027.6;;;-2.8;46.5
57799;BME280;43626;53.866;30.298;2023-11-21T23:31:57;1027.7;;;-2.9;47.1
57799;BME280;43626;53.866;30.298;2023-11-21T23:36:15;1027.8;;;-2.7;46.8
57799;BME280;43626;53.866;30.298;2023-11-21T23:41:21;1027.9;;;-2.8;46.7
57799;BME280;43626;53.866;30.298;2023-11-21T23:46:35;1027.9;;;-2.7;46.3
57799;BME280;43626;53.866;30.298;2023-11-21T23:51:47;1028;;;-2.8;46.1
57799;BME280;43626;53.866;30.298;2023-11-21T23:56:57;1028;;;-2.8;45.9
